createdAt,value
2023-04-27T00:01:35.637Z,3.72
2023-04-27T00:04:04.557Z,3.50
2023-04-27T00:06:32.676Z,4.20
2023-04-27T00:08:59.609Z,4.00
2023-04-27T00:11:26.695Z,4.28
2023-04-27T00:13:53.324Z,4.03
2023-04-27T00:16:19.975Z,3.80
2023-04-27T00:18:46.860Z,4.55
2023-04-27T00:21:13.510Z,3.90
2023-04-27T00:23:40.106Z,3.88
2023-04-27T00:26:06.679Z,3.92
2023-04-27T00:28:33.258Z,4.38
2023-04-27T00:31:04.137Z,3.72
2023-04-27T00:33:30.755Z,3.92
2023-04-27T00:36:04.319Z,4.00
2023-04-27T00:38:30.940Z,3.90
2023-04-27T00:41:04.491Z,3.72
2023-04-27T00:43:31.451Z,3.67
2023-04-27T00:45:58.798Z,3.55
2023-04-27T00:48:26.033Z,3.75
2023-04-27T00:50:52.952Z,3.70
2023-04-27T00:53:19.845Z,3.40
2023-04-27T00:55:47.320Z,3.55
2023-04-27T00:58:13.946Z,4.43
2023-04-27T01:00:43.833Z,3.60
2023-04-27T01:03:10.833Z,3.28
2023-04-27T01:05:38.010Z,3.80
2023-04-27T01:08:05.140Z,3.85
2023-04-27T01:10:31.765Z,3.85
2023-04-27T01:12:58.375Z,3.55
2023-04-27T01:15:25.110Z,4.15
2023-04-27T01:17:58.281Z,3.95
2023-04-27T01:20:25.296Z,3.92
2023-04-27T01:22:53.680Z,4.10
2023-04-27T01:25:20.520Z,4.18
2023-04-27T01:27:47.098Z,4.05
2023-04-27T01:30:13.968Z,4.10
2023-04-27T01:32:40.568Z,4.10
2023-04-27T01:35:07.829Z,3.90
2023-04-27T01:37:35.130Z,4.05
2023-04-27T01:40:01.913Z,3.83
2023-04-27T01:42:28.541Z,4.00
2023-04-27T01:44:55.133Z,4.13
2023-04-27T01:47:21.761Z,3.58
2023-04-27T01:49:48.389Z,4.18
2023-04-27T01:52:14.935Z,3.60
2023-04-27T01:54:41.599Z,4.32
2023-04-27T01:57:08.163Z,4.53
2023-04-27T01:59:34.849Z,4.30
2023-04-27T02:02:01.513Z,3.97
2023-04-27T02:04:28.388Z,4.18
2023-04-27T02:06:55.154Z,4.50
2023-04-27T02:09:22.577Z,4.28
2023-04-27T02:11:49.108Z,4.55
2023-04-27T02:14:15.697Z,3.90
2023-04-27T02:16:42.300Z,3.78
2023-04-27T02:19:08.923Z,3.58
2023-04-27T02:21:36.331Z,4.05
2023-04-27T02:24:03.026Z,4.45
2023-04-27T02:26:29.692Z,4.57
2023-04-27T02:28:59.512Z,4.97
2023-04-27T02:31:27.059Z,4.18
2023-04-27T02:33:53.812Z,3.83
2023-04-27T02:36:20.565Z,4.50
2023-04-27T02:38:47.091Z,4.20
2023-04-27T02:41:13.721Z,4.05
2023-04-27T02:43:43.403Z,4.38
2023-04-27T02:46:10.042Z,4.30
2023-04-27T02:48:36.693Z,4.50
2023-04-27T02:51:04.656Z,3.97
2023-04-27T02:53:31.255Z,3.67
2023-04-27T02:55:58.597Z,4.05
2023-04-27T02:58:26.092Z,4.25
2023-04-27T03:00:56.809Z,4.20
2023-04-27T03:03:24.408Z,4.70
2023-04-27T03:05:51.119Z,4.10
2023-04-27T03:08:17.830Z,4.03
2023-04-27T03:10:44.444Z,3.92
2023-04-27T03:13:12.200Z,4.18
2023-04-27T03:15:38.849Z,3.90
2023-04-27T03:18:06.238Z,4.35
2023-04-27T03:20:32.885Z,3.72
2023-04-27T03:22:59.500Z,3.95
2023-04-27T03:25:26.161Z,4.28
2023-04-27T03:27:52.711Z,3.85
2023-04-27T03:30:19.420Z,4.05
2023-04-27T03:32:47.760Z,4.10
2023-04-27T03:35:14.880Z,4.32
2023-04-27T03:37:41.441Z,3.70
2023-04-27T03:40:08.718Z,3.75
2023-04-27T03:42:35.421Z,3.90
2023-04-27T03:45:02.083Z,4.30
2023-04-27T03:47:28.701Z,5.20
2023-04-27T03:49:55.349Z,5.60
2023-04-27T03:52:22.193Z,5.80
2023-04-27T03:54:48.815Z,5.75
2023-04-27T03:57:16.060Z,5.65
2023-04-27T03:59:42.636Z,4.95
2023-04-27T04:02:09.639Z,4.40
2023-04-27T04:04:36.544Z,4.30
2023-04-27T04:07:03.354Z,3.67
2023-04-27T04:09:29.905Z,4.03
2023-04-27T04:11:56.589Z,4.10
2023-04-27T04:14:23.580Z,3.88
2023-04-27T04:16:50.184Z,4.28
2023-04-27T04:19:16.935Z,4.72
2023-04-27T04:21:43.697Z,4.18
2023-04-27T04:24:10.370Z,5.25
2023-04-27T04:26:38.787Z,4.95
2023-04-27T04:29:05.363Z,5.05
2023-04-27T04:31:33.756Z,4.63
2023-04-27T04:34:01.939Z,4.63
2023-04-27T04:36:28.628Z,4.55
2023-04-27T04:38:55.388Z,4.55
2023-04-27T04:41:21.981Z,4.30
2023-04-27T04:43:49.411Z,4.10
2023-04-27T04:46:16.809Z,4.25
2023-04-27T04:48:43.364Z,3.78
2023-04-27T04:51:09.929Z,4.35
2023-04-27T04:53:37.205Z,4.32
2023-04-27T04:56:14.081Z,4.68
2023-04-27T04:58:40.856Z,5.30
2023-04-27T05:01:07.516Z,5.97
2023-04-27T05:03:34.222Z,4.95
2023-04-27T05:06:01.044Z,5.45
2023-04-27T05:08:27.867Z,4.75
2023-04-27T05:10:54.686Z,4.57
2023-04-27T05:13:22.101Z,4.82
2023-04-27T05:15:48.743Z,4.70
2023-04-27T05:18:15.499Z,4.55
2023-04-27T05:20:42.198Z,4.97
2023-04-27T05:23:08.910Z,4.88
2023-04-27T05:25:41.918Z,4.38
2023-04-27T05:28:09.988Z,5.30
2023-04-27T05:30:37.499Z,4.50
2023-04-27T05:33:04.758Z,4.70
2023-04-27T05:35:31.991Z,4.78
2023-04-27T05:37:58.645Z,4.80
2023-04-27T05:40:25.578Z,4.57
2023-04-27T05:42:52.160Z,4.22
2023-04-27T05:45:18.899Z,4.45
2023-04-27T05:47:45.781Z,4.60
2023-04-27T05:50:12.564Z,4.32
2023-04-27T05:52:39.234Z,4.40
2023-04-27T05:55:07.617Z,4.53
2023-04-27T05:57:34.361Z,4.45
2023-04-27T06:00:01.611Z,4.82
2023-04-27T06:02:28.273Z,4.85
2023-04-27T06:04:54.985Z,4.78
2023-04-27T06:07:21.643Z,4.95
2023-04-27T06:09:48.235Z,4.72
2023-04-27T06:12:19.882Z,4.50
2023-04-27T06:14:46.594Z,5.18
2023-04-27T06:17:13.197Z,5.07
2023-04-27T06:19:39.859Z,4.82
2023-04-27T06:22:06.462Z,4.65
2023-04-27T06:24:33.003Z,5.30
2023-04-27T06:26:59.566Z,5.00
2023-04-27T06:29:26.148Z,4.80
2023-04-27T06:31:52.923Z,5.35
2023-04-27T06:34:19.832Z,4.70
2023-04-27T06:36:46.371Z,4.85
2023-04-27T06:39:13.234Z,5.00
2023-04-27T06:41:39.951Z,5.13
2023-04-27T06:44:06.718Z,4.35
2023-04-27T06:46:33.352Z,5.32
2023-04-27T06:48:59.965Z,4.78
2023-04-27T06:51:26.816Z,4.80
2023-04-27T06:53:56.369Z,4.70
2023-04-27T06:56:22.971Z,5.05
2023-04-27T06:58:49.523Z,4.88
2023-04-27T07:01:16.706Z,4.78
2023-04-27T07:03:43.675Z,5.43
2023-04-27T07:06:10.795Z,4.93
2023-04-27T07:08:37.810Z,5.00
2023-04-27T07:11:04.417Z,4.90
2023-04-27T07:13:31.083Z,4.70
2023-04-27T07:15:58.125Z,4.38
2023-04-27T07:18:25.078Z,4.88
2023-04-27T07:20:51.772Z,4.65
2023-04-27T07:23:18.369Z,5.07
2023-04-27T07:25:46.342Z,4.38
2023-04-27T07:28:13.152Z,4.25
2023-04-27T07:30:40.596Z,4.30
2023-04-27T07:33:07.768Z,4.35
2023-04-27T07:35:34.627Z,3.95
2023-04-27T07:38:04.299Z,3.97
2023-04-27T07:40:32.857Z,3.53
2023-04-27T07:42:59.877Z,3.47
2023-04-27T07:45:32.127Z,3.67
2023-04-27T07:48:00.552Z,3.22
2023-04-27T07:50:29.939Z,3.58
2023-04-27T07:52:57.650Z,2.95
2023-04-27T07:55:25.687Z,3.80
2023-04-27T07:57:56.849Z,3.53
2023-04-27T08:00:25.310Z,3.50
2023-04-27T08:02:55.764Z,3.17
2023-04-27T08:05:23.243Z,3.60
2023-04-27T08:07:54.125Z,2.10
2023-04-27T08:10:21.561Z,2.53
2023-04-27T08:12:48.304Z,3.42
2023-04-27T08:15:15.025Z,3.03
2023-04-27T08:17:42.261Z,2.97
2023-04-27T08:20:11.528Z,2.80
2023-04-27T08:22:39.229Z,2.95
2023-04-27T08:25:07.342Z,3.53
2023-04-27T08:27:34.646Z,3.42
2023-04-27T08:30:01.786Z,3.70
2023-04-27T08:32:28.520Z,2.97
2023-04-27T08:34:55.378Z,3.10
2023-04-27T08:37:21.990Z,3.08
2023-04-27T08:39:49.244Z,2.90
2023-04-27T08:42:16.224Z,3.08
2023-04-27T08:44:44.155Z,2.78
2023-04-27T08:47:11.286Z,3.03
2023-04-27T08:49:46.949Z,3.40
2023-04-27T08:52:15.273Z,3.40
2023-04-27T08:54:57.213Z,3.08
2023-04-27T08:57:24.870Z,2.95
2023-04-27T09:00:01.473Z,3.30
2023-04-27T09:02:29.699Z,3.15
2023-04-27T09:04:56.850Z,2.88
2023-04-27T09:07:23.821Z,3.20
2023-04-27T09:09:50.519Z,3.40
2023-04-27T09:12:22.890Z,3.60
2023-04-27T09:14:58.604Z,3.53
2023-04-27T09:17:30.265Z,3.03
2023-04-27T09:20:10.879Z,3.25
2023-04-27T09:22:48.526Z,3.38
2023-04-27T09:25:29.186Z,2.72
2023-04-27T09:27:56.575Z,2.90
2023-04-27T09:30:23.526Z,3.78
2023-04-27T09:33:07.976Z,3.00
2023-04-27T09:35:34.574Z,3.28
2023-04-27T09:38:01.608Z,3.20
2023-04-27T09:40:32.167Z,3.20
2023-04-27T09:43:01.871Z,3.00
2023-04-27T09:45:28.622Z,3.70
2023-04-27T09:47:55.729Z,3.17
2023-04-27T09:50:22.431Z,3.60
2023-04-27T09:52:49.242Z,3.10
2023-04-27T09:55:19.919Z,2.90
2023-04-27T09:58:01.457Z,3.35
2023-04-27T10:00:48.297Z,3.25
2023-04-27T10:03:33.251Z,3.53
2023-04-27T10:06:12.091Z,3.75
2023-04-27T10:08:39.299Z,3.40
2023-04-27T10:11:16.625Z,3.50
2023-04-27T10:13:54.796Z,3.60
2023-04-27T10:16:22.243Z,3.80
2023-04-27T10:18:54.099Z,3.58
2023-04-27T10:21:21.262Z,3.30
2023-04-27T10:23:51.015Z,3.70
2023-04-27T10:26:28.177Z,3.40
2023-04-27T10:29:08.442Z,3.53
2023-04-27T10:31:35.813Z,2.97
2023-04-27T10:34:09.689Z,3.30
2023-04-27T10:39:16.053Z,3.63
2023-04-27T10:41:51.806Z,3.60
2023-04-27T10:44:29.851Z,3.90
2023-04-27T10:47:02.008Z,3.95
2023-04-27T10:49:29.776Z,3.80
2023-04-27T10:51:59.437Z,3.92
2023-04-27T10:54:28.466Z,4.03
2023-04-27T10:57:02.247Z,3.55
2023-04-27T11:01:56.076Z,3.60
2023-04-27T11:04:22.790Z,4.10
2023-04-27T11:06:50.285Z,3.95
2023-04-27T11:09:29.520Z,2.97
2023-04-27T11:11:56.302Z,3.47
2023-04-27T11:14:22.895Z,3.13
2023-04-27T11:16:49.713Z,3.30
2023-04-27T11:19:16.996Z,2.90
2023-04-27T11:21:44.345Z,3.63
2023-04-27T11:24:12.164Z,3.55
2023-04-27T11:26:40.648Z,3.22
2023-04-27T11:29:14.252Z,3.30
2023-04-27T11:31:51.777Z,3.88
2023-04-27T11:34:22.657Z,3.28
2023-04-27T11:37:16.693Z,2.95
2023-04-27T11:39:46.062Z,2.80
2023-04-27T11:42:22.235Z,3.38
2023-04-27T11:44:59.297Z,3.33
2023-04-27T11:47:29.314Z,3.28
2023-04-27T11:50:01.182Z,3.10
2023-04-27T11:52:38.861Z,2.88
2023-04-27T11:55:06.209Z,3.00
2023-04-27T11:57:34.642Z,3.05
2023-04-27T12:00:02.840Z,3.20
2023-04-27T12:02:31.275Z,3.53
2023-04-27T12:04:59.460Z,3.30
2023-04-27T12:07:26.481Z,3.38
2023-04-27T12:09:53.056Z,3.22
2023-04-27T12:12:22.321Z,3.08
2023-04-27T12:14:49.950Z,2.92
2023-04-27T12:17:17.263Z,3.08
2023-04-27T12:19:44.014Z,2.90
2023-04-27T12:22:11.188Z,3.03
2023-04-27T12:24:37.790Z,2.53
2023-04-27T12:27:05.206Z,2.60
2023-04-27T12:29:34.511Z,3.08
2023-04-27T12:32:01.113Z,2.78
2023-04-27T12:34:28.589Z,3.25
2023-04-27T12:36:55.216Z,3.97
2023-04-27T12:39:25.508Z,3.08
2023-04-27T12:41:53.911Z,3.20
2023-04-27T12:44:21.486Z,2.70
2023-04-27T12:46:48.722Z,2.63
2023-04-27T12:49:15.795Z,3.33
2023-04-27T12:51:42.932Z,3.30
2023-04-27T12:54:11.251Z,3.38
2023-04-27T12:56:37.956Z,3.42
2023-04-27T12:59:06.011Z,3.17
2023-04-27T13:01:33.307Z,3.13
2023-04-27T13:04:01.946Z,2.88
2023-04-27T13:06:32.063Z,3.08
2023-04-27T13:09:02.561Z,2.92
2023-04-27T13:11:29.237Z,3.20
2023-04-27T13:13:55.828Z,3.03
2023-04-27T13:16:25.349Z,2.80
2023-04-27T13:18:52.496Z,2.63
2023-04-27T13:21:19.500Z,3.40
2023-04-27T13:23:47.003Z,3.35
2023-04-27T13:26:14.639Z,3.55
2023-04-27T13:28:41.923Z,3.38
2023-04-27T13:31:08.610Z,3.40
2023-04-27T13:33:41.571Z,3.42
2023-04-27T13:36:09.661Z,3.13
2023-04-27T13:38:36.486Z,3.40
2023-04-27T13:41:03.784Z,3.08
2023-04-27T13:43:31.258Z,2.60
2023-04-27T13:46:03.562Z,2.60
2023-04-27T13:48:30.938Z,2.85
2023-04-27T13:50:58.268Z,3.08
2023-04-27T13:53:25.931Z,2.97
2023-04-27T13:55:54.373Z,2.90
2023-04-27T13:58:21.998Z,2.90
2023-04-27T14:00:52.051Z,3.10
2023-04-27T14:03:19.358Z,3.30
2023-04-27T14:05:48.421Z,2.95
2023-04-27T14:08:15.035Z,3.03
2023-04-27T14:10:41.801Z,2.65
2023-04-27T14:13:08.485Z,3.85
2023-04-27T14:15:37.320Z,2.90
2023-04-27T14:18:08.206Z,2.92
2023-04-27T14:20:35.725Z,2.78
2023-04-27T14:23:04.105Z,3.15
2023-04-27T14:25:32.874Z,3.00
2023-04-27T14:28:01.481Z,3.20
2023-04-27T14:30:28.298Z,3.13
2023-04-27T14:32:55.077Z,3.20
2023-04-27T14:35:23.731Z,3.15
2023-04-27T14:37:51.413Z,3.00
2023-04-27T14:40:18.917Z,2.90
2023-04-27T14:42:45.528Z,3.13
2023-04-27T14:45:12.446Z,2.75
2023-04-27T14:47:39.127Z,2.50
2023-04-27T14:50:06.693Z,3.10
2023-04-27T14:52:33.401Z,2.85
2023-04-27T14:55:00.933Z,2.60
2023-04-27T14:57:27.811Z,2.35
2023-04-27T14:59:54.422Z,2.70
2023-04-27T15:02:21.171Z,3.30
2023-04-27T15:04:47.864Z,3.10
2023-04-27T15:07:14.547Z,2.80
2023-04-27T15:09:41.123Z,2.90
2023-04-27T15:12:08.060Z,3.92
2023-04-27T15:14:34.673Z,7.80
2023-04-27T15:17:01.327Z,2.65
2023-04-27T15:19:27.909Z,3.22
2023-04-27T15:21:54.572Z,2.45
2023-04-27T15:24:21.131Z,2.47
2023-04-27T15:26:48.543Z,2.85
2023-04-27T15:29:15.546Z,3.00
2023-04-27T15:31:42.536Z,2.88
2023-04-27T15:34:09.370Z,5.55
2023-04-27T15:36:35.942Z,1.67
2023-04-27T15:39:02.568Z,2.38
2023-04-27T15:41:29.140Z,2.45
2023-04-27T15:43:55.811Z,2.30
2023-04-27T15:46:22.422Z,2.30
2023-04-27T15:48:49.068Z,2.38
2023-04-27T15:51:15.868Z,3.00
2023-04-27T15:53:42.469Z,2.63
2023-04-27T15:56:09.106Z,1.60
2023-04-27T15:58:35.636Z,2.10
2023-04-27T16:01:02.246Z,2.45
2023-04-27T16:03:29.165Z,2.45
2023-04-27T16:05:56.038Z,2.55
2023-04-27T16:08:22.727Z,2.60
2023-04-27T16:10:50.173Z,2.30
2023-04-27T16:13:16.788Z,2.67
2023-04-27T16:15:43.528Z,2.35
2023-04-27T16:18:10.307Z,2.38
2023-04-27T16:20:37.001Z,2.53
2023-04-27T16:23:04.753Z,2.25
2023-04-27T16:25:31.622Z,2.42
2023-04-27T16:27:59.293Z,2.15
2023-04-27T16:30:26.155Z,2.35
2023-04-27T16:32:53.435Z,2.30
2023-04-27T16:35:20.530Z,2.17
2023-04-27T16:37:49.631Z,8.00
2023-04-27T16:40:16.756Z,2.60
2023-04-27T16:42:43.505Z,2.60
2023-04-27T16:45:11.122Z,2.40
2023-04-27T16:47:39.388Z,2.17
2023-04-27T16:50:06.574Z,2.42
2023-04-27T16:52:33.219Z,2.33
2023-04-27T16:55:00.132Z,2.50
2023-04-27T16:57:26.990Z,2.58
2023-04-27T16:59:54.322Z,2.60
2023-04-27T17:02:25.129Z,2.30
2023-04-27T17:04:54.180Z,2.00
2023-04-27T17:07:21.428Z,2.05
2023-04-27T17:09:48.642Z,2.03
2023-04-27T17:12:16.802Z,2.33
2023-04-27T17:14:43.371Z,2.08
2023-04-27T17:17:10.964Z,2.80
2023-04-27T17:19:39.072Z,2.20
2023-04-27T17:22:06.244Z,2.13
2023-04-27T17:24:32.934Z,2.47
2023-04-27T17:26:59.629Z,1.98
2023-04-27T17:29:26.547Z,1.88
2023-04-27T17:31:53.414Z,2.00
2023-04-27T17:34:22.991Z,2.17
2023-04-27T17:36:49.632Z,2.55
2023-04-27T17:39:16.317Z,2.60
2023-04-27T17:41:43.036Z,2.80
2023-04-27T17:44:12.012Z,3.42
2023-04-27T17:46:38.795Z,2.40
2023-04-27T17:49:05.917Z,2.20
2023-04-27T17:51:34.520Z,2.10
2023-04-27T17:54:01.299Z,2.10
2023-04-27T17:56:28.145Z,1.70
2023-04-27T17:58:54.887Z,1.60
2023-04-27T18:01:21.784Z,1.77
2023-04-27T18:03:50.277Z,1.88
2023-04-27T18:06:19.454Z,1.90
2023-04-27T18:08:46.187Z,1.80
2023-04-27T18:11:13.078Z,2.17
2023-04-27T18:13:39.754Z,1.83
2023-04-27T18:16:08.088Z,1.80
2023-04-27T18:18:34.904Z,1.77
2023-04-27T18:21:01.653Z,1.63
2023-04-27T18:23:28.291Z,1.70
2023-04-27T18:26:00.320Z,1.88
2023-04-27T18:28:27.018Z,1.50
2023-04-27T18:30:53.843Z,1.80
2023-04-27T18:33:21.276Z,2.00
2023-04-27T18:35:48.036Z,2.00
2023-04-27T18:38:14.736Z,1.80
2023-04-27T18:40:41.571Z,1.70
2023-04-27T18:43:08.588Z,1.98
2023-04-27T18:45:35.448Z,1.90
2023-04-27T18:48:02.299Z,2.00
2023-04-27T18:50:29.282Z,2.05
2023-04-27T18:52:55.930Z,2.03
2023-04-27T18:55:22.735Z,1.95
2023-04-27T18:57:49.341Z,1.95
2023-04-27T19:00:16.275Z,2.10
2023-04-27T19:02:43.195Z,2.08
2023-04-27T19:05:13.591Z,1.85
2023-04-27T19:07:40.794Z,2.13
2023-04-27T19:10:08.250Z,2.00
2023-04-27T19:12:35.113Z,2.15
2023-04-27T19:15:01.860Z,2.03
2023-04-27T19:17:28.920Z,2.80
2023-04-27T19:19:56.033Z,3.30
2023-04-27T19:22:22.949Z,3.17
2023-04-27T19:24:49.693Z,3.30
2023-04-27T19:27:16.495Z,3.00
2023-04-27T19:29:50.268Z,3.42
2023-04-27T19:34:43.900Z,2.80
2023-04-27T19:37:10.640Z,3.13
2023-04-27T19:39:37.449Z,3.17
2023-04-27T19:42:04.415Z,3.10
2023-04-27T19:44:31.253Z,2.90
2023-04-27T19:46:57.863Z,3.05
2023-04-27T19:49:24.613Z,2.70
2023-04-27T19:51:51.378Z,2.65
2023-04-27T19:54:18.368Z,7.45
2023-04-27T19:56:45.051Z,4.95
2023-04-27T19:59:12.392Z,3.10
2023-04-27T20:01:39.013Z,3.20
2023-04-27T20:04:06.089Z,2.67
2023-04-27T20:06:33.934Z,2.83
2023-04-27T20:09:00.575Z,3.65
2023-04-27T20:11:27.290Z,3.20
2023-04-27T20:13:53.836Z,2.60
2023-04-27T20:16:22.060Z,2.70
2023-04-27T20:18:49.735Z,2.50
2023-04-27T20:21:16.490Z,2.83
2023-04-27T20:23:43.197Z,2.50
2023-04-27T20:26:09.769Z,2.70
2023-04-27T20:28:36.318Z,3.13
2023-04-27T20:31:02.884Z,3.30
2023-04-27T20:33:29.683Z,3.03
2023-04-27T20:36:03.729Z,2.78
2023-04-27T20:38:36.983Z,2.70
2023-04-27T20:41:04.686Z,2.80
2023-04-27T20:43:31.521Z,2.63
2023-04-27T20:45:58.171Z,2.80
2023-04-27T20:48:28.372Z,3.05
2023-04-27T20:50:55.548Z,3.28
2023-04-27T20:53:22.153Z,5.40
2023-04-27T20:55:48.781Z,7.72
2023-04-27T20:58:15.442Z,5.90
2023-04-27T21:00:42.057Z,4.45
2023-04-27T21:03:08.867Z,3.78
2023-04-27T21:05:35.804Z,4.50
2023-04-27T21:08:02.402Z,3.60
2023-04-27T21:10:29.033Z,3.42
2023-04-27T21:12:55.915Z,3.58
2023-04-27T21:15:22.594Z,3.78
2023-04-27T21:17:49.224Z,4.05
2023-04-27T21:20:16.281Z,3.92
2023-04-27T21:22:42.911Z,3.63
2023-04-27T21:25:09.656Z,4.00
2023-04-27T21:27:36.564Z,3.60
2023-04-27T21:30:03.274Z,3.55
2023-04-27T21:32:29.933Z,3.65
2023-04-27T21:34:56.665Z,3.35
2023-04-27T21:37:23.294Z,3.88
2023-04-27T21:39:49.842Z,3.78
2023-04-27T21:42:16.564Z,4.88
2023-04-27T21:44:43.205Z,3.53
2023-04-27T21:47:09.924Z,4.22
2023-04-27T21:49:36.472Z,3.72
2023-04-27T21:52:03.132Z,3.92
2023-04-27T21:54:29.786Z,3.70
2023-04-27T21:56:56.449Z,3.70
2023-04-27T21:59:23.085Z,3.80
2023-04-27T22:01:49.868Z,3.97
2023-04-27T22:04:16.910Z,3.38
2023-04-27T22:06:44.672Z,3.60
2023-04-27T22:09:12.339Z,3.97
2023-04-27T22:11:39.003Z,3.65
2023-04-27T22:14:05.635Z,3.60
2023-04-27T22:16:32.253Z,3.40
2023-04-27T22:18:59.737Z,3.38
2023-04-27T22:21:28.985Z,3.70
2023-04-27T22:23:55.834Z,3.60
2023-04-27T22:26:22.491Z,3.83
2023-04-27T22:28:49.064Z,3.63
2023-04-27T22:31:15.700Z,3.97
2023-04-27T22:33:42.336Z,3.67
2023-04-27T22:36:09.239Z,3.25
2023-04-27T22:38:35.840Z,3.53
2023-04-27T22:41:02.386Z,3.95
2023-04-27T22:43:28.969Z,3.47
2023-04-27T22:45:55.657Z,3.25
2023-04-27T22:48:22.211Z,3.67
2023-04-27T22:50:48.827Z,3.55
2023-04-27T22:53:15.795Z,3.30
2023-04-27T22:55:42.476Z,3.80
2023-04-27T22:58:09.012Z,3.63
2023-04-27T23:00:35.603Z,3.58
2023-04-27T23:03:02.310Z,4.07
2023-04-27T23:05:29.219Z,3.22
2023-04-27T23:07:55.851Z,3.38
2023-04-27T23:10:22.724Z,3.58
2023-04-27T23:12:50.722Z,3.50
2023-04-27T23:15:17.459Z,3.75
2023-04-27T23:17:44.305Z,3.35
2023-04-27T23:20:24.501Z,3.75
2023-04-27T23:22:53.759Z,3.65
2023-04-27T23:25:20.414Z,3.60
2023-04-27T23:27:47.520Z,4.03
2023-04-27T23:30:14.631Z,4.00
2023-04-27T23:32:41.280Z,3.75
2023-04-27T23:35:08.305Z,4.05
2023-04-27T23:37:35.032Z,3.53
2023-04-27T23:40:01.564Z,3.42
2023-04-27T23:42:28.270Z,3.83
2023-04-27T23:44:54.853Z,3.95
2023-04-27T23:47:21.438Z,3.28
2023-04-27T23:49:48.020Z,3.90
2023-04-27T23:52:14.668Z,3.58
2023-04-27T23:54:41.577Z,3.83
2023-04-27T23:57:08.172Z,4.25
2023-04-27T23:59:35.496Z,4.43
